Time;durP1;ratioP1;P1;durP2;ratioP2;P2;SDS_P1;SDS_P2;PMS_P1;PMS_P2;Temp;Humidity;BMP_temperature;BMP_pressure;BME280_temperature;BME280_humidity;BME280_pressure;Samples;Min_cycle;Max_cycle;Signal;HPM_P1;HPM_P2
2023/09/01 00:01:29;;;;;;;7.80;4.07;;;;;;;24.47;66.73;98961.22;4790931;29;20655;-87
2023/09/01 00:03:56;;;;;;;6.23;3.60;;;;;;;24.48;66.76;98961.03;4806588;29;20277;-87
2023/09/01 00:06:23;;;;;;;8.63;3.53;;;;;;;24.43;66.57;98966.94;4806453;29;20293;-87
2023/09/01 00:08:48;;;;;;;6.73;3.37;;;;;;;24.40;66.57;98971.78;4806479;29;20202;-87
2023/09/01 00:11:15;;;;;;;7.47;4.00;;;;;;;24.34;66.71;98962.59;4790509;29;20186;-87
2023/09/01 00:13:42;;;;;;;5.80;3.47;;;;;;;24.26;66.59;98964.47;4806687;29;20265;-87
2023/09/01 00:16:08;;;;;;;6.70;3.63;;;;;;;24.24;66.76;98979.88;4790696;29;20613;-87
2023/09/01 00:18:36;;;;;;;6.10;3.87;;;;;;;24.24;66.83;98975.34;4806367;29;20187;-87
2023/09/01 00:21:03;;;;;;;8.07;3.67;;;;;;;24.18;67.26;98980.56;4806546;29;20242;-87
2023/09/01 00:23:31;;;;;;;6.87;3.50;;;;;;;24.08;67.96;98980.72;4790072;29;20190;-86
2023/09/01 00:25:59;;;;;;;7.23;3.50;;;;;;;24.14;67.34;98982.72;4805573;29;20179;-87
2023/09/01 00:28:26;;;;;;;6.17;3.20;;;;;;;24.18;67.17;98977.88;4806045;29;20217;-86
2023/09/01 00:30:58;;;;;;;5.57;3.20;;;;;;;24.21;66.97;98982.91;4805376;29;20182;-87
2023/09/01 00:33:28;;;;;;;6.60;3.80;;;;;;;24.19;66.93;98990.25;4790434;29;20186;-87
2023/09/01 00:35:55;;;;;;;5.87;3.00;;;;;;;24.13;66.77;98980.25;4806239;29;20183;-86
2023/09/01 00:38:24;;;;;;;8.53;4.33;;;;;;;24.02;66.94;98988.59;4805466;29;20265;-87
2023/09/01 00:40:50;;;;;;;5.60;2.97;;;;;;;23.98;67.07;98981.91;4790098;29;20548;-87
2023/09/01 00:43:16;;;;;;;10.83;3.47;;;;;;;23.90;67.43;98984.59;4806047;29;20178;-87
2023/09/01 00:45:43;;;;;;;5.83;3.27;;;;;;;23.82;68.05;98977.38;4805065;29;20290;-87
2023/09/01 00:48:11;;;;;;;5.20;3.23;;;;;;;23.80;68.31;98979.38;4806165;29;20239;-87
2023/09/01 00:50:37;;;;;;;6.97;3.03;;;;;;;23.82;68.21;98980.03;4805987;29;20178;-86
2023/09/01 00:53:07;;;;;;;5.57;3.10;;;;;;;23.78;68.23;98981.41;4806247;29;20210;-87
2023/09/01 00:55:33;;;;;;;5.30;2.90;;;;;;;23.72;67.75;98982.91;4806552;29;20654;-86
2023/09/01 00:58:03;;;;;;;8.57;3.17;;;;;;;23.77;67.59;98987.75;4806172;29;20194;-87
2023/09/01 01:00:31;;;;;;;5.23;2.53;;;;;;;23.81;67.04;98989.09;4805859;29;20192;-87
2023/09/01 01:03:04;;;;;;;4.83;3.03;;;;;;;23.76;67.30;98997.66;4805764;29;20603;-87
2023/09/01 01:05:41;;;;;;;6.33;3.07;;;;;;;23.71;67.32;98983.94;4806141;29;20174;-87
2023/09/01 01:08:32;;;;;;;7.37;3.17;;;;;;;23.65;67.52;98986.41;4790027;29;20220;-86
2023/09/01 01:11:19;;;;;;;9.60;2.90;;;;;;;23.63;67.23;98993.78;4790098;29;20579;-87
2023/09/01 01:13:47;;;;;;;5.63;2.70;;;;;;;23.58;67.04;98988.94;4805854;29;20174;-87
2023/09/01 01:16:16;;;;;;;7.90;3.47;;;;;;;23.59;67.37;98987.91;4805679;29;20182;-86
2023/09/01 01:18:46;;;;;;;5.57;2.53;;;;;;;23.53;67.55;98988.56;4806207;29;20186;-87
2023/09/01 01:21:21;;;;;;;5.33;2.67;;;;;;;23.51;67.46;98989.75;4806274;29;20179;-87
2023/09/01 01:23:49;;;;;;;5.77;2.87;;;;;;;23.49;67.51;98986.41;4805796;29;20303;-87
2023/09/01 01:26:16;;;;;;;7.23;2.67;;;;;;;23.41;67.79;98987.22;4805455;29;20540;-86
2023/09/01 01:28:44;;;;;;;4.73;2.70;;;;;;;23.46;67.79;98987.56;4789730;29;20197;-87
2023/09/01 01:31:12;;;;;;;8.00;2.20;;;;;;;23.40;66.93;98988.22;4789709;29;20186;-86
2023/09/01 01:34:04;;;;;;;10.07;2.87;;;;;;;23.35;66.97;98982.50;4790370;29;20277;-87
2023/09/01 01:37:00;;;;;;;4.00;2.40;;;;;;;23.33;67.10;98981.00;4790146;29;20197;-87
2023/09/01 01:39:28;;;;;;;7.90;2.73;;;;;;;23.17;68.07;98977.28;4797578;29;20198;-86
2023/09/01 01:42:05;;;;;;;6.00;2.57;;;;;;;23.16;68.55;98975.66;4792376;29;20355;-87
2023/09/01 01:44:37;;;;;;;5.80;2.87;;;;;;;23.22;68.14;98977.63;4808057;29;20214;-87
2023/09/01 01:47:06;;;;;;;4.33;2.77;;;;;;;23.31;68.04;98975.81;4808117;29;20203;-87
2023/09/01 01:49:32;;;;;;;5.50;2.80;;;;;;;23.36;67.58;98976.16;4808635;29;20304;-86
2023/09/01 01:52:00;;;;;;;3.97;2.23;;;;;;;23.36;67.13;98975.31;4793137;29;20642;-86
2023/09/01 01:54:25;;;;;;;5.80;3.00;;;;;;;23.29;67.21;98975.16;4807666;29;20238;-87
2023/09/01 01:56:52;;;;;;;6.53;3.13;;;;;;;23.24;66.94;98978.31;4808628;29;20198;-87
2023/09/01 01:59:17;;;;;;;4.90;2.53;;;;;;;23.18;67.40;98978.13;4807748;29;20195;-86
2023/09/01 02:01:44;;;;;;;6.47;3.10;;;;;;;23.10;67.24;98970.94;4807957;29;20205;-87
2023/09/01 02:04:10;;;;;;;8.47;2.70;;;;;;;23.11;67.20;98977.13;4808586;29;20198;-87
2023/09/01 02:06:37;;;;;;;10.53;3.20;;;;;;;23.08;67.20;98986.31;4808587;29;20210;-87
2023/09/01 02:09:03;;;;;;;6.07;3.07;;;;;;;22.95;67.81;98987.78;4792468;29;20186;-87
2023/09/01 02:11:29;;;;;;;5.93;3.10;;;;;;;22.87;68.85;98996.59;4792553;29;20557;-87
2023/09/01 02:13:56;;;;;;;4.60;2.30;;;;;;;22.83;68.62;98987.22;4808667;29;20194;-86
2023/09/01 02:16:26;;;;;;;4.90;2.80;;;;;;;22.81;68.87;98991.06;4807765;29;20193;-86
2023/09/01 02:18:52;;;;;;;8.37;2.77;;;;;;;22.79;69.00;98985.88;4808377;29;20539;-87
2023/09/01 02:21:22;;;;;;;8.23;2.33;;;;;;;22.79;68.89;98985.03;4807658;29;20250;-86
2023/09/01 02:23:50;;;;;;;5.87;2.60;;;;;;;22.74;68.47;98990.03;4807118;29;20206;-86
2023/09/01 02:26:19;;;;;;;5.87;2.30;;;;;;;22.70;68.81;98991.34;4807174;29;20194;-87
2023/09/01 02:28:46;;;;;;;3.83;2.33;;;;;;;22.66;69.19;98984.66;4807295;29;20189;-87
2023/09/01 02:31:14;;;;;;;6.43;2.63;;;;;;;22.57;69.55;98986.41;4807108;29;20209;-87
2023/09/01 02:33:40;;;;;;;7.30;2.93;;;;;;;22.60;69.36;98986.09;4807394;29;20194;-87
2023/09/01 02:36:31;;;;;;;5.10;2.80;;;;;;;22.56;69.34;98976.75;4792380;29;20254;-87
2023/09/01 02:38:57;;;;;;;6.20;2.93;;;;;;;22.55;69.15;98977.72;4807433;29;20219;-87
2023/09/01 02:41:24;;;;;;;5.83;2.87;;;;;;;22.57;68.97;98979.25;4807319;29;20335;-87
2023/09/01 02:43:51;;;;;;;7.20;3.17;;;;;;;22.58;68.79;98972.06;4808319;29;20191;-87
2023/09/01 02:46:18;;;;;;;5.90;2.70;;;;;;;22.63;68.59;98975.97;4807842;29;20186;-87
2023/09/01 02:48:43;;;;;;;5.23;2.80;;;;;;;22.58;68.55;98970.25;4807855;29;20279;-87
2023/09/01 02:51:10;;;;;;;7.03;2.50;;;;;;;22.56;68.36;98971.41;4807824;29;20646;-87
2023/09/01 02:53:36;;;;;;;4.67;2.80;;;;;;;22.52;68.91;98981.56;4806954;29;20182;-87
2023/09/01 02:56:03;;;;;;;9.07;3.20;;;;;;;22.46;69.03;98976.84;4807622;29;20238;-86
2023/09/01 02:58:29;;;;;;;6.30;2.70;;;;;;;22.37;69.55;98977.81;4807860;29;20199;-87
2023/09/01 03:00:55;;;;;;;7.23;3.03;;;;;;;22.35;69.51;98982.44;4791971;29;20549;-87
2023/09/01 03:03:23;;;;;;;5.30;2.50;;;;;;;22.40;69.18;98998.03;4807642;29;20183;-87
2023/09/01 03:05:50;;;;;;;7.00;2.73;;;;;;;22.40;69.01;98990.84;4807594;29;20178;-87
2023/09/01 03:08:17;;;;;;;4.63;2.50;;;;;;;22.42;68.63;98986.19;4807359;29;20302;-87
2023/09/01 03:10:44;;;;;;;6.83;2.27;;;;;;;22.36;69.05;98991.31;4807721;29;20182;-87
2023/09/01 03:13:10;;;;;;;7.80;3.03;;;;;;;22.35;68.70;98995.81;4807337;29;20606;-87
2023/09/01 03:15:36;;;;;;;5.00;2.77;;;;;;;22.39;68.37;99001.69;4807412;29;20178;-87
2023/09/01 03:18:01;;;;;;;9.03;2.80;;;;;;;22.35;68.32;98989.66;4807637;29;20187;-87
2023/09/01 03:20:28;;;;;;;4.80;2.63;;;;;;;22.38;68.17;98998.16;4791756;29;20187;-87
2023/09/01 03:22:55;;;;;;;5.30;2.87;;;;;;;22.29;68.18;98995.63;4807154;29;20201;-87
2023/09/01 03:25:21;;;;;;;5.47;2.57;;;;;;;22.21;68.49;98996.41;4791885;29;20182;-87
2023/09/01 03:27:48;;;;;;;8.90;2.77;;;;;;;22.11;69.29;98998.34;4807195;29;20213;-86
2023/09/01 03:30:15;;;;;;;4.60;2.57;;;;;;;22.11;69.31;98997.50;4807115;29;20265;-87
2023/09/01 03:32:42;;;;;;;9.37;2.70;;;;;;;22.16;68.97;99006.72;4791169;29;20586;-87
2023/09/01 03:35:09;;;;;;;4.50;2.17;;;;;;;22.13;68.60;99006.19;4791168;29;20186;-87
2023/09/01 03:37:35;;;;;;;6.30;2.40;;;;;;;22.10;68.43;99004.66;4806862;29;20191;-87
2023/09/01 03:40:08;;;;;;;5.70;2.10;;;;;;;22.10;68.53;99002.00;4807237;29;20593;-86
2023/09/01 03:42:33;;;;;;;5.37;2.60;;;;;;;22.06;68.48;99005.97;4806037;29;20251;-86
2023/09/01 03:45:00;;;;;;;7.33;2.20;;;;;;;22.04;68.41;99002.63;4806430;29;20191;-87
2023/09/01 03:47:26;;;;;;;6.17;2.40;;;;;;;22.02;68.48;99002.78;4790752;29;20296;-87
2023/09/01 03:49:53;;;;;;;7.83;2.63;;;;;;;21.99;68.77;98999.56;4807588;29;20193;-87
2023/09/01 03:52:20;;;;;;;5.40;2.27;;;;;;;21.97;68.79;99002.41;4790895;29;20232;-87
2023/09/01 03:54:46;;;;;;;6.90;3.40;;;;;;;21.99;68.75;98999.56;4790693;29;20336;-86
2023/09/01 03:57:12;;;;;;;10.10;2.87;;;;;;;22.00;69.13;99001.25;4790692;29;20277;-86
2023/09/01 03:59:40;;;;;;;6.77;2.93;;;;;;;22.03;68.87;99001.81;4805710;29;20285;-86
2023/09/01 04:02:06;;;;;;;3.73;2.20;;;;;;;22.02;69.08;99004.59;4805889;29;20223;-86
2023/09/01 04:04:31;;;;;;;5.17;2.60;;;;;;;22.04;69.32;98994.59;4806449;29;20216;-87
2023/09/01 04:06:57;;;;;;;5.23;3.00;;;;;;;22.03;69.62;98996.47;4806806;29;20684;-86
2023/09/01 04:09:23;;;;;;;6.57;2.50;;;;;;;21.94;70.29;98997.38;4806422;29;20559;-86
2023/09/01 04:11:50;;;;;;;9.20;2.90;;;;;;;21.95;70.51;98998.22;4806474;29;20620;-86
2023/09/01 04:14:17;;;;;;;4.67;2.87;;;;;;;21.91;70.40;99007.53;4806737;29;20190;-86
2023/09/01 04:16:44;;;;;;;7.77;2.80;;;;;;;21.85;70.54;99003.63;4790435;29;20182;-86
2023/09/01 04:19:10;;;;;;;9.70;2.93;;;;;;;21.90;70.04;99000.53;4806455;29;20592;-87
2023/09/01 04:21:36;;;;;;;4.40;2.60;;;;;;;21.93;70.23;99005.56;4805392;29;20194;-86
2023/09/01 04:24:03;;;;;;;6.10;2.77;;;;;;;21.88;70.63;99007.84;4806605;29;20186;-86
2023/09/01 04:26:28;;;;;;;6.70;3.13;;;;;;;21.93;70.50;99010.91;4789553;29;20190;-86
2023/09/01 04:28:53;;;;;;;4.83;2.50;;;;;;;22.00;70.01;99011.94;4804191;29;20241;-86
2023/09/01 04:31:28;;;;;;;6.53;3.17;;;;;;;21.97;70.12;99012.25;4803972;29;20637;-86
2023/09/01 04:33:56;;;;;;;5.90;2.90;;;;;;;21.95;70.66;99020.41;4804922;29;20612;-86
2023/09/01 04:36:22;;;;;;;4.93;2.77;;;;;;;21.98;70.78;99016.59;4804440;29;20202;-86
2023/09/01 04:38:48;;;;;;;6.27;2.87;;;;;;;22.08;70.58;99025.34;4789396;29;20297;-86
2023/09/01 04:41:15;;;;;;;5.17;2.77;;;;;;;22.11;70.44;99014.38;4803739;29;20190;-86
2023/09/01 04:43:42;;;;;;;5.27;3.10;;;;;;;22.21;70.28;99023.09;4804411;29;20266;-86
2023/09/01 04:46:09;;;;;;;8.83;2.63;;;;;;;22.36;69.75;99021.53;4806089;29;20186;-86
2023/09/01 04:48:36;;;;;;;6.47;2.83;;;;;;;22.54;69.29;99016.97;4805339;29;20282;-86
2023/09/01 04:51:03;;;;;;;8.20;2.73;;;;;;;22.68;68.99;99022.72;4806271;29;20273;-86
2023/09/01 04:53:30;;;;;;;5.67;2.83;;;;;;;22.82;68.03;99024.81;4806090;29;20194;-86
2023/09/01 04:55:56;;;;;;;6.50;2.70;;;;;;;22.89;67.50;99025.84;4790326;29;20282;-86
2023/09/01 04:58:23;;;;;;;4.77;2.43;;;;;;;23.00;66.89;99026.41;4805322;29;20189;-86
2023/09/01 05:00:54;;;;;;;5.97;2.80;;;;;;;23.11;66.58;99030.59;4806164;29;20229;-86
2023/09/01 05:03:21;;;;;;;4.87;3.10;;;;;;;23.30;65.87;99029.47;4805971;29;20198;-86
2023/09/01 05:05:47;;;;;;;3.90;2.17;;;;;;;23.49;65.39;99030.06;4804913;29;20230;-86
2023/09/01 05:08:14;;;;;;;7.67;3.17;;;;;;;23.57;65.40;99032.75;4804873;29;20214;-86
2023/09/01 05:10:41;;;;;;;5.33;2.93;;;;;;;23.69;65.74;99044.78;4804934;29;20182;-86
2023/09/01 05:13:08;;;;;;;5.83;2.20;;;;;;;23.69;65.20;99036.75;4804866;29;20193;-86
2023/09/01 05:15:35;;;;;;;5.57;2.23;;;;;;;23.72;65.12;99033.75;4805980;29;20569;-85
2023/09/01 05:18:02;;;;;;;5.20;2.30;;;;;;;23.82;65.35;99042.47;4810031;29;20690;-86
2023/09/01 05:20:27;;;;;;;5.03;2.37;;;;;;;23.95;64.95;99041.16;4809458;29;20189;-85
2023/09/01 05:22:53;;;;;;;6.30;2.13;;;;;;;24.13;64.85;99052.56;4793720;29;20186;-85
2023/09/01 05:25:19;;;;;;;4.00;2.10;;;;;;;24.28;64.51;99051.69;4808094;29;20194;-86
2023/09/01 05:27:46;;;;;;;6.43;1.60;;;;;;;24.42;63.07;99056.34;4809286;29;20217;-85
2023/09/01 05:30:13;;;;;;;7.10;1.97;;;;;;;24.53;62.06;99055.16;4808315;29;20266;-85
2023/09/01 05:32:39;;;;;;;4.37;2.10;;;;;;;24.65;59.85;99053.81;4809707;29;20559;-85
2023/09/01 05:35:07;;;;;;;4.47;2.00;;;;;;;24.77;59.79;99055.09;4809222;29;20187;-85
2023/09/01 05:37:34;;;;;;;5.07;2.10;;;;;;;24.89;57.89;99053.78;4793168;29;20195;-85
2023/09/01 05:40:00;;;;;;;3.80;1.80;;;;;;;24.99;57.60;99053.56;4809026;29;20224;-85
2023/09/01 05:42:25;;;;;;;4.37;1.70;;;;;;;24.88;56.66;99048.56;4809096;29;20215;-85
2023/09/01 05:44:51;;;;;;;7.00;2.00;;;;;;;25.07;55.63;99044.63;4809532;29;20183;-85
2023/09/01 05:47:16;;;;;;;3.60;1.87;;;;;;;24.98;55.96;99052.72;4807973;29;20307;-85
2023/09/01 05:49:41;;;;;;;6.83;2.13;;;;;;;25.09;56.21;99050.66;4808015;29;20191;-85
2023/09/01 05:52:07;;;;;;;7.33;1.80;;;;;;;25.09;55.80;99043.44;4809216;29;20182;-85
2023/09/01 05:54:32;;;;;;;5.47;1.70;;;;;;;25.31;54.94;99052.56;4808701;29;20649;-85
2023/09/01 05:56:59;;;;;;;4.70;2.17;;;;;;;25.51;54.97;99043.91;4808794;29;20194;-85
2023/09/01 05:59:26;;;;;;;4.17;1.90;;;;;;;25.75;54.87;99050.97;4808820;29;20237;-85
2023/09/01 06:01:52;;;;;;;3.60;1.77;;;;;;;26.08;54.25;99049.69;4808732;29;20198;-84
2023/09/01 06:04:18;;;;;;;6.33;2.00;;;;;;;26.42;53.07;99043.03;4808582;29;20190;-85
2023/09/01 06:06:44;;;;;;;7.15;1.98;;;;;;;26.78;51.03;99052.09;4808583;29;20217;-85
2023/09/01 06:09:12;;;;;;;5.47;2.10;;;;;;;27.00;49.13;99059.22;4792980;29;20183;-85
2023/09/01 06:11:39;;;;;;;4.28;1.80;;;;;;;27.35;50.40;99062.97;4808971;29;20197;-85
2023/09/01 06:14:06;;;;;;;4.60;1.88;;;;;;;27.55;48.24;99061.38;4808506;29;20187;-85
2023/09/01 06:16:33;;;;;;;4.85;2.10;;;;;;;27.84;48.24;99063.97;4808347;29;20182;-86
2023/09/01 06:19:00;;;;;;;5.75;1.90;;;;;;;27.91;47.35;99064.00;4792504;29;20202;-85
2023/09/01 06:21:27;;;;;;;6.85;2.63;;;;;;;28.06;45.92;99064.84;4807306;29;20198;-85
2023/09/01 06:23:54;;;;;;;6.18;2.03;;;;;;;28.33;45.95;99069.41;4808352;29;20266;-85
2023/09/01 06:26:21;;;;;;;5.70;1.90;;;;;;;28.82;44.90;99074.78;4807837;29;20281;-85
2023/09/01 06:28:48;;;;;;;6.30;2.35;;;;;;;29.11;42.23;99068.31;4807627;29;20182;-85
2023/09/01 06:31:16;;;;;;;4.25;1.30;;;;;;;29.21;41.49;99075.03;4808290;29;20647;-85
2023/09/01 06:33:44;;;;;;;5.25;1.67;;;;;;;29.48;43.25;99064.31;4807198;29;20187;-85
2023/09/01 06:36:12;;;;;;;5.32;1.20;;;;;;;29.79;42.28;99075.47;4807360;29;20206;-86
2023/09/01 06:38:41;;;;;;;3.58;1.52;;;;;;;29.78;41.32;99071.06;4807260;29;20212;-86
2023/09/01 06:41:07;;;;;;;6.72;2.15;;;;;;;29.78;40.53;99071.91;4808080;29;20218;-86
2023/09/01 06:43:33;;;;;;;4.88;1.77;;;;;;;29.73;39.76;99074.38;4792034;29;20225;-86
2023/09/01 06:45:59;;;;;;;4.28;1.50;;;;;;;29.81;40.83;99074.22;4808151;29;20680;-86
2023/09/01 06:48:25;;;;;;;6.15;2.05;;;;;;;29.91;41.15;99081.06;4808009;29;20619;-86
2023/09/01 06:50:52;;;;;;;3.83;1.10;;;;;;;30.09;40.01;99084.00;4808196;29;20183;-86
2023/09/01 06:53:18;;;;;;;3.08;1.65;;;;;;;30.37;39.47;99077.41;4808268;29;20190;-87
2023/09/01 06:55:49;;;;;;;3.67;1.63;;;;;;;30.20;39.71;99080.69;4808339;29;20202;-87
2023/09/01 06:58:14;;;;;;;2.83;1.17;;;;;;;30.08;39.05;99082.38;4807201;29;20187;-88
2023/09/01 07:00:40;;;;;;;5.88;1.60;;;;;;;30.24;40.55;99090.88;4791880;29;20261;-87
2023/09/01 07:03:05;;;;;;;3.20;1.27;;;;;;;30.21;39.15;99085.09;4807845;29;20183;-87
2023/09/01 07:05:31;;;;;;;5.32;1.70;;;;;;;30.59;40.04;99080.72;4807731;29;20613;-86
2023/09/01 07:07:56;;;;;;;4.40;1.73;;;;;;;30.89;39.75;99081.94;4808153;29;20335;-87
2023/09/01 07:10:22;;;;;;;3.90;1.80;;;;;;;31.19;38.83;99090.41;4807646;29;20194;-86
2023/09/01 07:12:47;;;;;;;4.50;1.75;;;;;;;31.25;37.73;99086.00;4791695;29;20292;-87
2023/09/01 07:15:13;;;;;;;4.65;1.23;;;;;;;31.50;38.38;99097.81;4792354;29;20191;-87
2023/09/01 07:17:38;;;;;;;5.70;1.90;;;;;;;31.48;37.62;99092.63;4808263;29;20258;-87
2023/09/01 07:20:04;;;;;;;2.65;1.23;;;;;;;31.73;38.01;99097.31;4807335;29;20610;-87
2023/09/01 07:22:31;;;;;;;4.28;1.73;;;;;;;31.72;37.13;99099.19;4791383;29;20659;-87
2023/09/01 07:24:57;;;;;;;3.38;1.50;;;;;;;31.60;37.60;99099.00;4807568;29;20756;-86
2023/09/01 07:27:23;;;;;;;3.58;1.55;;;;;;;31.71;37.29;99102.13;4807810;29;20320;-87
2023/09/01 07:29:50;;;;;;;4.75;1.70;;;;;;;31.77;36.57;99102.06;4807262;29;20190;-87
2023/09/01 07:32:17;;;;;;;3.83;1.67;;;;;;;32.03;38.16;99107.34;4807533;29;20179;-86
2023/09/01 07:34:47;;;;;;;4.13;1.40;;;;;;;32.31;37.17;99106.13;4806567;29;20244;-87
2023/09/01 07:37:13;;;;;;;6.22;2.25;;;;;;;32.21;36.45;99104.72;4807040;29;20235;-87
2023/09/01 07:39:39;;;;;;;9.10;1.90;;;;;;;32.30;35.58;99112.59;4806026;29;20202;-89
2023/09/01 07:42:07;;;;;;;3.78;1.33;;;;;;;31.99;34.73;99114.28;4791374;29;20680;-87
2023/09/01 07:44:34;;;;;;;3.25;1.40;;;;;;;31.94;35.91;99115.94;4807043;29;20190;-87
2023/09/01 07:47:00;;;;;;;4.10;1.50;;;;;;;31.90;36.25;99107.41;4807205;29;20207;-87
2023/09/01 07:49:27;;;;;;;4.07;1.92;;;;;;;32.02;35.22;99105.69;4790836;29;20190;-88
2023/09/01 07:51:54;;;;;;;4.88;1.73;;;;;;;31.70;36.20;99112.13;4807168;29;20637;-89
2023/09/01 07:54:19;;;;;;;3.95;1.83;;;;;;;31.63;36.39;99100.47;4790877;29;20190;-88
2023/09/01 07:56:46;;;;;;;2.80;1.40;;;;;;;31.55;36.13;99103.44;4807367;29;20230;-87
2023/09/01 07:59:11;;;;;;;3.10;1.42;;;;;;;31.82;36.05;99107.66;4806847;29;20266;-87
2023/09/01 08:01:38;;;;;;;3.22;1.52;;;;;;;31.71;35.16;99102.91;4790779;29;20273;-90
2023/09/01 08:04:05;;;;;;;3.80;1.50;;;;;;;31.68;34.93;99103.38;4805764;29;20218;-89
2023/09/01 08:06:31;;;;;;;4.40;1.73;;;;;;;31.63;35.51;99096.94;4806522;29;20278;-87
2023/09/01 08:08:58;;;;;;;3.42;1.70;;;;;;;31.51;36.14;99094.06;4806677;29;20226;-87
2023/09/01 08:11:23;;;;;;;4.60;1.60;;;;;;;31.40;36.64;99108.25;4807097;29;20182;-87
2023/09/01 08:13:50;;;;;;;5.85;1.83;;;;;;;31.64;36.96;99094.00;4790776;29;20208;-89
2023/09/01 08:16:17;;;;;;;6.57;1.70;;;;;;;31.75;36.44;99098.75;4806801;29;20186;-87
2023/09/01 08:18:44;;;;;;;3.13;1.50;;;;;;;31.95;36.56;99094.03;4806804;29;20193;-87
2023/09/01 08:21:10;;;;;;;4.47;1.60;;;;;;;31.94;35.33;99097.81;4790787;29;20255;-87
2023/09/01 08:23:36;;;;;;;4.80;2.10;;;;;;;32.05;36.96;99094.41;4806209;29;20202;-87
2023/09/01 08:26:05;;;;;;;4.15;1.63;;;;;;;32.26;35.49;99098.63;4790736;29;20262;-89
2023/09/01 08:28:31;;;;;;;2.80;1.40;;;;;;;32.33;34.49;99096.72;4806415;29;20343;-88
2023/09/01 08:31:05;;;;;;;2.50;1.35;;;;;;;32.48;33.96;99105.34;4805691;29;20252;-88
2023/09/01 08:33:32;;;;;;;5.72;1.77;;;;;;;32.38;33.35;99101.47;4790323;29;20190;-89
2023/09/01 08:36:05;;;;;;;3.47;1.48;;;;;;;32.47;34.94;99102.88;4806136;29;20195;-88
2023/09/01 08:38:32;;;;;;;3.08;1.30;;;;;;;32.27;34.31;99092.16;4806099;29;20187;-88
2023/09/01 08:41:09;;;;;;;3.42;1.58;;;;;;;32.47;34.05;99097.44;4805261;29;20347;-89
2023/09/01 08:43:38;;;;;;;4.50;1.63;;;;;;;32.31;33.95;99089.84;4791127;29;20186;-88
2023/09/01 08:46:06;;;;;;;2.78;1.10;;;;;;;32.33;33.57;99087.75;4806095;29;20198;-88
2023/09/01 08:48:34;;;;;;;3.85;1.50;;;;;;;32.44;33.48;99082.44;4806149;29;20206;-89
2023/09/01 08:51:03;;;;;;;3.90;1.42;;;;;;;32.61;32.57;99083.56;4805706;29;20187;-87
2023/09/01 08:53:46;;;;;;;2.90;1.02;;;;;;;32.86;33.07;99069.13;4806080;29;20197;-88
2023/09/01 08:56:13;;;;;;;3.22;1.42;;;;;;;32.58;32.98;99077.72;4788166;29;20242;-88
2023/09/01 08:58:40;;;;;;;5.15;1.42;;;;;;;32.71;33.84;99077.59;4787121;29;20199;-88
2023/09/01 09:01:05;;;;;;;4.13;1.30;;;;;;;33.14;34.12;99078.44;4787751;29;20559;-87
2023/09/01 09:03:32;;;;;;;2.78;1.20;;;;;;;33.25;31.85;99074.13;4775546;29;20198;-87
2023/09/01 09:06:02;;;;;;;2.85;0.90;;;;;;;33.61;33.18;99076.00;4787822;29;20275;-88
2023/09/01 09:08:29;;;;;;;3.88;1.38;;;;;;;33.62;31.35;99069.50;4803925;29;20218;-87
2023/09/01 09:10:56;;;;;;;3.92;1.10;;;;;;;33.70;31.93;99066.47;4802254;29;20193;-87
2023/09/01 09:13:29;;;;;;;2.83;1.35;;;;;;;34.04;30.81;99063.03;4786761;29;20646;-87
2023/09/01 09:16:15;;;;;;;4.30;1.20;;;;;;;34.10;30.77;99064.81;4792724;29;20203;-87
2023/09/01 09:18:46;;;;;;;2.97;1.30;;;;;;;34.29;31.04;99069.13;4797035;29;20190;-87
2023/09/01 09:21:32;;;;;;;2.35;0.93;;;;;;;34.24;28.99;99066.28;4796526;29;20239;-89
2023/09/01 09:24:03;;;;;;;5.43;1.38;;;;;;;34.14;28.66;99057.88;4797720;29;20175;-88
2023/09/01 09:26:31;;;;;;;4.95;1.25;;;;;;;34.39;30.95;99054.94;4810577;29;20194;-87
2023/09/01 09:29:06;;;;;;;3.53;1.10;;;;;;;34.58;29.72;99057.34;4797107;29;20219;-87
2023/09/01 09:31:37;;;;;;;3.78;0.90;;;;;;;34.62;28.62;99054.97;4789961;29;20194;-88
2023/09/01 09:34:13;;;;;;;2.97;1.17;;;;;;;34.87;28.49;99057.44;4788001;29;20199;-88
2023/09/01 09:36:40;;;;;;;3.78;1.45;;;;;;;34.83;27.90;99056.28;4805552;29;20179;-89
2023/09/01 09:39:09;;;;;;;2.45;1.02;;;;;;;34.77;28.99;99049.88;4785188;29;20195;-87
2023/09/01 09:41:45;;;;;;;3.10;1.15;;;;;;;34.92;29.63;99038.47;4787443;29;20195;-87
2023/09/01 09:44:20;;;;;;;4.22;1.13;;;;;;;35.01;28.69;99040.59;4787542;30;20688;-88
2023/09/01 09:46:49;;;;;;;2.15;0.98;;;;;;;34.66;27.20;99037.09;4786975;30;20207;-89
2023/09/01 09:49:15;;;;;;;2.55;0.98;;;;;;;34.65;29.91;99040.03;4795963;29;20191;-87
2023/09/01 09:51:42;;;;;;;4.13;1.20;;;;;;;34.51;29.78;99037.53;4789833;29;20252;-87
2023/09/01 09:54:13;;;;;;;2.15;0.85;;;;;;;34.71;28.53;99036.38;4805813;29;20186;-87
2023/09/01 09:56:42;;;;;;;1.80;0.95;;;;;;;35.13;29.26;99040.59;4804464;29;20244;-87
2023/09/01 09:59:12;;;;;;;3.17;1.48;;;;;;;35.12;28.50;99038.94;4805899;29;20277;-87
2023/09/01 10:01:39;;;;;;;1.95;0.88;;;;;;;34.97;27.92;99028.53;4806443;29;20191;-87
2023/09/01 10:04:06;;;;;;;2.15;0.85;;;;;;;35.19;28.23;99031.47;4808674;29;20191;-88
2023/09/01 10:06:33;;;;;;;3.55;1.30;;;;;;;35.39;27.48;99028.31;4791872;29;20194;-86
2023/09/01 10:09:00;;;;;;;3.50;1.10;;;;;;;35.58;27.12;99022.47;4803365;29;20206;-87
2023/09/01 10:11:28;;;;;;;3.33;1.48;;;;;;;35.67;28.21;99025.59;4781045;30;20210;-87
2023/09/01 10:13:55;;;;;;;2.17;1.15;;;;;;;35.69;28.61;99024.28;4803652;29;20183;-88
2023/09/01 10:16:22;;;;;;;3.55;1.20;;;;;;;35.86;27.58;99018.03;4793080;29;20194;-87
2023/09/01 10:18:50;;;;;;;2.47;0.82;;;;;;;35.89;27.40;99017.53;4807376;29;20210;-87
2023/09/01 10:21:17;;;;;;;2.95;1.13;;;;;;;35.53;27.64;99016.06;4808908;29;20186;-87
2023/09/01 10:23:44;;;;;;;2.08;1.20;;;;;;;35.74;28.71;99016.22;4799552;29;20209;-87
2023/09/01 10:26:26;;;;;;;2.60;1.02;;;;;;;36.01;28.07;99004.72;4794951;29;20260;-87
2023/09/01 10:29:00;;;;;;;2.70;1.10;;;;;;;36.22;28.05;99017.59;4790028;29;20187;-87
2023/09/01 10:31:26;;;;;;;6.95;1.30;;;;;;;36.23;26.35;99019.25;4793244;29;20179;-86
2023/09/01 10:34:14;;;;;;;3.17;1.13;;;;;;;36.55;26.30;99012.13;4808255;29;20186;-86
2023/09/01 10:36:42;;;;;;;2.90;1.30;;;;;;;36.78;26.32;99017.38;4788493;30;20731;-86
2023/09/01 10:39:32;;;;;;;2.67;1.00;;;;;;;36.89;26.13;99012.88;4789367;30;20267;-86
2023/09/01 10:42:48;;;;;;;4.60;1.55;;;;;;;36.78;24.98;99008.34;4789050;29;20191;-87
2023/09/01 10:45:15;;;;;;;2.03;0.82;;;;;;;36.78;26.06;99009.19;4807247;29;20201;-87
2023/09/01 10:47:51;;;;;;;2.28;1.00;;;;;;;36.83;25.23;99003.78;4806909;29;20207;-86
2023/09/01 10:50:18;;;;;;;1.70;0.90;;;;;;;36.87;24.81;99004.13;4807918;29;20194;-86
2023/09/01 10:53:23;;;;;;;4.03;1.45;;;;;;;37.21;25.40;98999.38;4808283;29;20182;-86
2023/09/01 10:56:07;;;;;;;2.70;1.25;;;;;;;37.43;25.63;99003.75;4791811;29;20313;-86
2023/09/01 10:58:49;;;;;;;3.15;1.17;;;;;;;37.07;25.04;99001.66;4789870;30;20175;-86
2023/09/01 11:01:33;;;;;;;2.30;1.10;;;;;;;37.21;25.25;98996.63;4774318;30;20171;-86
2023/09/01 11:04:27;;;;;;;2.25;0.90;;;;;;;37.09;25.48;99001.41;4774008;30;20183;-87
2023/09/01 11:07:08;;;;;;;3.38;1.45;;;;;;;37.27;26.09;98990.13;4787996;30;20215;-87
2023/09/01 11:09:33;;;;;;;2.05;0.90;;;;;;;37.26;25.08;98986.59;4789929;30;20228;-87
2023/09/01 11:12:02;;;;;;;2.92;1.20;;;;;;;37.40;24.61;98993.31;4789705;30;20274;-86
2023/09/01 11:14:28;;;;;;;4.00;1.70;;;;;;;37.65;24.38;98995.50;4788967;29;20222;-87
2023/09/01 11:16:53;;;;;;;1.60;0.80;;;;;;;37.49;24.79;98996.44;4773656;30;20211;-86
2023/09/01 11:19:19;;;;;;;2.55;0.98;;;;;;;37.40;23.91;98985.13;4773987;30;20187;-86
2023/09/01 11:21:46;;;;;;;3.15;1.38;;;;;;;37.39;24.82;98985.34;4789450;30;20183;-87
2023/09/01 11:24:12;;;;;;;1.85;0.90;;;;;;;37.36;24.97;98983.97;4801920;29;20255;-86
2023/09/01 11:26:38;;;;;;;3.15;1.45;;;;;;;37.01;25.12;98993.63;4807238;29;20265;-86
2023/09/01 11:29:11;;;;;;;1.40;0.90;;;;;;;37.36;25.49;98983.13;4807609;29;20187;-86
2023/09/01 11:31:39;;;;;;;1.92;0.88;;;;;;;37.63;24.99;98983.16;4807101;29;20197;-86
2023/09/01 11:34:06;;;;;;;2.85;1.10;;;;;;;37.68;25.46;98972.28;4807425;29;20186;-87
2023/09/01 11:36:33;;;;;;;2.70;1.05;;;;;;;37.63;24.09;98974.97;4807035;29;20561;-86
2023/09/01 11:38:59;;;;;;;3.17;1.23;;;;;;;38.00;23.75;98970.41;4807320;29;20258;-86
2023/09/01 11:41:27;;;;;;;2.53;0.90;;;;;;;38.20;24.40;98964.25;4807677;29;20264;-86